sensor_id;sensor_type;location;lat;lon;timestamp;P1;durP1;ratioP1;P2;durP2;ratioP2
71095;SDS011;58753;49.440;11.126;2023-05-10T00:00:26;1.75;;;0.82;;
71095;SDS011;58753;49.440;11.126;2023-05-10T00:02:52;2.03;;;0.70;;
71095;SDS011;58753;49.440;11.126;2023-05-10T00:05:17;1.00;;;0.50;;
71095;SDS011;58753;49.440;11.126;2023-05-10T00:07:43;2.40;;;1.00;;
71095;SDS011;58753;49.440;11.126;2023-05-10T00:10:10;12.43;;;1.80;;
71095;SDS011;58753;49.440;11.126;2023-05-10T00:12:36;2.22;;;0.93;;
71095;SDS011;58753;49.440;11.126;2023-05-10T00:15:01;1.73;;;0.93;;
71095;SDS011;58753;49.440;11.126;2023-05-10T00:17:27;2.10;;;0.90;;
71095;SDS011;58753;49.440;11.126;2023-05-10T00:19:53;2.13;;;1.05;;
71095;SDS011;58753;49.440;11.126;2023-05-10T00:22:19;1.70;;;1.00;;
71095;SDS011;58753;49.440;11.126;2023-05-10T00:24:45;1.63;;;0.50;;
71095;SDS011;58753;49.440;11.126;2023-05-10T00:27:10;2.03;;;1.27;;
71095;SDS011;58753;49.440;11.126;2023-05-10T00:29:35;1.50;;;0.93;;
71095;SDS011;58753;49.440;11.126;2023-05-10T00:32:01;2.37;;;1.60;;
71095;SDS011;58753;49.440;11.126;2023-05-10T00:34:26;3.40;;;1.27;;
71095;SDS011;58753;49.440;11.126;2023-05-10T00:36:52;2.17;;;1.23;;
71095;SDS011;58753;49.440;11.126;2023-05-10T00:39:17;1.73;;;0.97;;
71095;SDS011;58753;49.440;11.126;2023-05-10T00:41:43;1.83;;;1.50;;
71095;SDS011;58753;49.440;11.126;2023-05-10T00:44:08;2.67;;;1.50;;
71095;SDS011;58753;49.440;11.126;2023-05-10T00:46:34;2.20;;;1.75;;
71095;SDS011;58753;49.440;11.126;2023-05-10T00:49:00;3.55;;;2.13;;
71095;SDS011;58753;49.440;11.126;2023-05-10T00:51:25;1.50;;;0.83;;
71095;SDS011;58753;49.440;11.126;2023-05-10T00:53:50;2.37;;;1.57;;
71095;SDS011;58753;49.440;11.126;2023-05-10T00:56:16;2.50;;;1.50;;
71095;SDS011;58753;49.440;11.126;2023-05-10T00:58:42;3.60;;;2.27;;
71095;SDS011;58753;49.440;11.126;2023-05-10T01:01:08;3.60;;;1.67;;
71095;SDS011;58753;49.440;11.126;2023-05-10T01:03:34;3.08;;;1.33;;
71095;SDS011;58753;49.440;11.126;2023-05-10T01:06:00;2.17;;;1.40;;
71095;SDS011;58753;49.440;11.126;2023-05-10T01:08:26;12.00;;;0.98;;
71095;SDS011;58753;49.440;11.126;2023-05-10T01:10:52;3.00;;;1.63;;
71095;SDS011;58753;49.440;11.126;2023-05-10T01:13:23;4.33;;;1.50;;
71095;SDS011;58753;49.440;11.126;2023-05-10T01:15:58;1.15;;;0.70;;
71095;SDS011;58753;49.440;11.126;2023-05-10T01:18:26;2.60;;;1.52;;
71095;SDS011;58753;49.440;11.126;2023-05-10T01:20:57;2.65;;;0.95;;
71095;SDS011;58753;49.440;11.126;2023-05-10T01:29:30;1.85;;;1.10;;
71095;SDS011;58753;49.440;11.126;2023-05-10T01:32:24;1.83;;;1.48;;
71095;SDS011;58753;49.440;11.126;2023-05-10T01:37:45;3.75;;;1.45;;
71095;SDS011;58753;49.440;11.126;2023-05-10T01:40:23;2.00;;;0.93;;
71095;SDS011;58753;49.440;11.126;2023-05-10T01:42:54;1.60;;;1.30;;
71095;SDS011;58753;49.440;11.126;2023-05-10T01:45:41;2.40;;;1.50;;
71095;SDS011;58753;49.440;11.126;2023-05-10T01:48:14;3.40;;;1.65;;
71095;SDS011;58753;49.440;11.126;2023-05-10T01:50:41;2.67;;;1.70;;
71095;SDS011;58753;49.440;11.126;2023-05-10T01:53:09;2.33;;;1.13;;
71095;SDS011;58753;49.440;11.126;2023-05-10T01:55:41;2.78;;;1.45;;
71095;SDS011;58753;49.440;11.126;2023-05-10T01:58:12;1.85;;;0.95;;
71095;SDS011;58753;49.440;11.126;2023-05-10T02:00:41;3.35;;;1.50;;
71095;SDS011;58753;49.440;11.126;2023-05-10T02:03:08;2.92;;;1.35;;
71095;SDS011;58753;49.440;11.126;2023-05-10T02:05:36;3.90;;;1.33;;
71095;SDS011;58753;49.440;11.126;2023-05-10T02:08:02;3.50;;;1.92;;
71095;SDS011;58753;49.440;11.126;2023-05-10T02:10:31;3.08;;;1.83;;
71095;SDS011;58753;49.440;11.126;2023-05-10T02:12:58;2.30;;;1.40;;
71095;SDS011;58753;49.440;11.126;2023-05-10T02:15:25;2.90;;;1.65;;
71095;SDS011;58753;49.440;11.126;2023-05-10T02:17:52;2.23;;;1.37;;
71095;SDS011;58753;49.440;11.126;2023-05-10T02:20:20;2.05;;;1.13;;
71095;SDS011;58753;49.440;11.126;2023-05-10T02:22:48;1.95;;;1.10;;
71095;SDS011;58753;49.440;11.126;2023-05-10T02:25:15;4.28;;;1.52;;
71095;SDS011;58753;49.440;11.126;2023-05-10T02:27:44;1.35;;;1.17;;
71095;SDS011;58753;49.440;11.126;2023-05-10T02:30:11;2.47;;;1.43;;
71095;SDS011;58753;49.440;11.126;2023-05-10T02:32:37;2.80;;;1.27;;
71095;SDS011;58753;49.440;11.126;2023-05-10T02:35:03;2.45;;;1.25;;
71095;SDS011;58753;49.440;11.126;2023-05-10T02:37:29;2.23;;;1.40;;
71095;SDS011;58753;49.440;11.126;2023-05-10T02:39:55;1.80;;;1.08;;
71095;SDS011;58753;49.440;11.126;2023-05-10T02:42:26;3.15;;;1.33;;
71095;SDS011;58753;49.440;11.126;2023-05-10T02:44:53;3.47;;;0.65;;
71095;SDS011;58753;49.440;11.126;2023-05-10T02:47:21;2.70;;;1.38;;
71095;SDS011;58753;49.440;11.126;2023-05-10T02:49:47;1.87;;;1.00;;
71095;SDS011;58753;49.440;11.126;2023-05-10T02:52:14;2.77;;;1.57;;
71095;SDS011;58753;49.440;11.126;2023-05-10T02:54:45;1.98;;;1.23;;
71095;SDS011;58753;49.440;11.126;2023-05-10T02:57:20;2.08;;;0.90;;
71095;SDS011;58753;49.440;11.126;2023-05-10T02:59:54;3.25;;;1.13;;
71095;SDS011;58753;49.440;11.126;2023-05-10T03:02:20;4.30;;;1.92;;
71095;SDS011;58753;49.440;11.126;2023-05-10T03:04:45;2.73;;;1.13;;
71095;SDS011;58753;49.440;11.126;2023-05-10T03:07:11;1.87;;;1.17;;
71095;SDS011;58753;49.440;11.126;2023-05-10T03:09:37;1.05;;;0.47;;
71095;SDS011;58753;49.440;11.126;2023-05-10T03:12:14;2.27;;;0.97;;
71095;SDS011;58753;49.440;11.126;2023-05-10T03:20:37;0.90;;;0.50;;
71095;SDS011;58753;49.440;11.126;2023-05-10T03:26:02;1.25;;;0.70;;
71095;SDS011;58753;49.440;11.126;2023-05-10T03:28:29;0.70;;;0.50;;
71095;SDS011;58753;49.440;11.126;2023-05-10T03:30:56;1.35;;;0.28;;
71095;SDS011;58753;49.440;11.126;2023-05-10T03:33:23;0.88;;;0.47;;
71095;SDS011;58753;49.440;11.126;2023-05-10T03:35:49;0.63;;;0.30;;
71095;SDS011;58753;49.440;11.126;2023-05-10T03:38:14;0.60;;;0.17;;
71095;SDS011;58753;49.440;11.126;2023-05-10T03:40:40;0.83;;;0.60;;
71095;SDS011;58753;49.440;11.126;2023-05-10T03:43:05;0.60;;;0.30;;
71095;SDS011;58753;49.440;11.126;2023-05-10T03:45:31;0.73;;;0.30;;
71095;SDS011;58753;49.440;11.126;2023-05-10T03:47:59;0.83;;;0.30;;
71095;SDS011;58753;49.440;11.126;2023-05-10T03:50:25;0.43;;;0.22;;
71095;SDS011;58753;49.440;11.126;2023-05-10T03:52:51;0.43;;;0.28;;
71095;SDS011;58753;49.440;11.126;2023-05-10T03:55:17;0.55;;;0.28;;
71095;SDS011;58753;49.440;11.126;2023-05-10T03:57:42;0.40;;;0.10;;
71095;SDS011;58753;49.440;11.126;2023-05-10T04:00:08;1.20;;;0.20;;
71095;SDS011;58753;49.440;11.126;2023-05-10T04:02:35;0.27;;;0.10;;
71095;SDS011;58753;49.440;11.126;2023-05-10T04:05:00;0.32;;;0.10;;
71095;SDS011;58753;49.440;11.126;2023-05-10T04:07:26;0.40;;;0.20;;
71095;SDS011;58753;49.440;11.126;2023-05-10T04:09:51;0.57;;;0.50;;
71095;SDS011;58753;49.440;11.126;2023-05-10T04:12:17;0.50;;;0.20;;
71095;SDS011;58753;49.440;11.126;2023-05-10T04:14:42;0.40;;;0.20;;
71095;SDS011;58753;49.440;11.126;2023-05-10T04:17:08;0.73;;;0.30;;
71095;SDS011;58753;49.440;11.126;2023-05-10T04:19:33;0.50;;;0.27;;
71095;SDS011;58753;49.440;11.126;2023-05-10T04:21:58;0.30;;;0.20;;
71095;SDS011;58753;49.440;11.126;2023-05-10T04:24:24;0.23;;;0.10;;
71095;SDS011;58753;49.440;11.126;2023-05-10T04:26:50;0.28;;;0.17;;
71095;SDS011;58753;49.440;11.126;2023-05-10T04:29:15;1.03;;;0.10;;
71095;SDS011;58753;49.440;11.126;2023-05-10T04:31:41;0.40;;;0.20;;
71095;SDS011;58753;49.440;11.126;2023-05-10T04:34:06;0.30;;;0.20;;
71095;SDS011;58753;49.440;11.126;2023-05-10T04:36:31;0.30;;;0.20;;
71095;SDS011;58753;49.440;11.126;2023-05-10T04:39:01;0.30;;;0.20;;
71095;SDS011;58753;49.440;11.126;2023-05-10T04:41:28;0.50;;;0.20;;
71095;SDS011;58753;49.440;11.126;2023-05-10T04:43:53;0.40;;;0.20;;
71095;SDS011;58753;49.440;11.126;2023-05-10T04:46:19;0.20;;;0.10;;
71095;SDS011;58753;49.440;11.126;2023-05-10T04:48:44;0.22;;;0.10;;
71095;SDS011;58753;49.440;11.126;2023-05-10T04:51:10;0.20;;;0.00;;
71095;SDS011;58753;49.440;11.126;2023-05-10T04:53:35;0.23;;;0.10;;
71095;SDS011;58753;49.440;11.126;2023-05-10T04:56:00;0.50;;;0.20;;
71095;SDS011;58753;49.440;11.126;2023-05-10T04:58:26;0.80;;;0.20;;
71095;SDS011;58753;49.440;11.126;2023-05-10T05:00:51;0.77;;;0.38;;
71095;SDS011;58753;49.440;11.126;2023-05-10T05:03:17;0.40;;;0.20;;
71095;SDS011;58753;49.440;11.126;2023-05-10T05:05:43;0.20;;;0.10;;
71095;SDS011;58753;49.440;11.126;2023-05-10T05:08:09;0.77;;;0.30;;
71095;SDS011;58753;49.440;11.126;2023-05-10T05:10:34;0.30;;;0.10;;
71095;SDS011;58753;49.440;11.126;2023-05-10T05:12:59;2.67;;;0.27;;
71095;SDS011;58753;49.440;11.126;2023-05-10T05:15:25;0.20;;;0.10;;
71095;SDS011;58753;49.440;11.126;2023-05-10T05:17:50;1.63;;;0.40;;
71095;SDS011;58753;49.440;11.126;2023-05-10T05:20:16;0.20;;;0.10;;
71095;SDS011;58753;49.440;11.126;2023-05-10T05:22:42;0.20;;;0.10;;
71095;SDS011;58753;49.440;11.126;2023-05-10T05:25:07;0.20;;;0.10;;
71095;SDS011;58753;49.440;11.126;2023-05-10T05:27:33;0.30;;;0.20;;
71095;SDS011;58753;49.440;11.126;2023-05-10T05:29:58;1.43;;;0.60;;
71095;SDS011;58753;49.440;11.126;2023-05-10T05:32:24;0.30;;;0.10;;
71095;SDS011;58753;49.440;11.126;2023-05-10T05:34:50;0.30;;;0.20;;
71095;SDS011;58753;49.440;11.126;2023-05-10T05:37:16;0.20;;;0.20;;
71095;SDS011;58753;49.440;11.126;2023-05-10T05:39:42;0.37;;;0.20;;
71095;SDS011;58753;49.440;11.126;2023-05-10T05:42:11;0.40;;;0.20;;
71095;SDS011;58753;49.440;11.126;2023-05-10T05:44:38;0.20;;;0.10;;
71095;SDS011;58753;49.440;11.126;2023-05-10T05:47:04;0.20;;;0.10;;
71095;SDS011;58753;49.440;11.126;2023-05-10T05:49:29;0.28;;;0.10;;
71095;SDS011;58753;49.440;11.126;2023-05-10T05:51:58;0.30;;;0.10;;
71095;SDS011;58753;49.440;11.126;2023-05-10T05:54:27;0.50;;;0.20;;
71095;SDS011;58753;49.440;11.126;2023-05-10T05:56:54;0.50;;;0.27;;
71095;SDS011;58753;49.440;11.126;2023-05-10T05:59:22;0.30;;;0.15;;
71095;SDS011;58753;49.440;11.126;2023-05-10T06:01:48;0.70;;;0.40;;
71095;SDS011;58753;49.440;11.126;2023-05-10T06:04:14;0.40;;;0.17;;
71095;SDS011;58753;49.440;11.126;2023-05-10T06:06:39;0.40;;;0.20;;
71095;SDS011;58753;49.440;11.126;2023-05-10T06:09:04;0.30;;;0.13;;
71095;SDS011;58753;49.440;11.126;2023-05-10T06:11:30;0.50;;;0.40;;
71095;SDS011;58753;49.440;11.126;2023-05-10T06:13:57;0.32;;;0.20;;
71095;SDS011;58753;49.440;11.126;2023-05-10T06:16:23;0.30;;;0.15;;
71095;SDS011;58753;49.440;11.126;2023-05-10T06:18:48;0.30;;;0.20;;
71095;SDS011;58753;49.440;11.126;2023-05-10T06:21:14;0.43;;;0.20;;
71095;SDS011;58753;49.440;11.126;2023-05-10T06:23:40;1.00;;;0.30;;
71095;SDS011;58753;49.440;11.126;2023-05-10T06:26:05;0.57;;;0.30;;
71095;SDS011;58753;49.440;11.126;2023-05-10T06:28:30;0.40;;;0.30;;
71095;SDS011;58753;49.440;11.126;2023-05-10T06:30:57;1.35;;;0.57;;
71095;SDS011;58753;49.440;11.126;2023-05-10T06:33:22;0.60;;;0.40;;
71095;SDS011;58753;49.440;11.126;2023-05-10T06:35:48;0.57;;;0.40;;
71095;SDS011;58753;49.440;11.126;2023-05-10T06:38:13;0.87;;;0.50;;
71095;SDS011;58753;49.440;11.126;2023-05-10T06:40:42;0.60;;;0.30;;
71095;SDS011;58753;49.440;11.126;2023-05-10T06:43:07;0.60;;;0.30;;
71095;SDS011;58753;49.440;11.126;2023-05-10T06:45:33;0.82;;;0.40;;
71095;SDS011;58753;49.440;11.126;2023-05-10T06:47:58;0.33;;;0.13;;
71095;SDS011;58753;49.440;11.126;2023-05-10T06:50:24;0.40;;;0.20;;
71095;SDS011;58753;49.440;11.126;2023-05-10T06:52:50;0.43;;;0.20;;
71095;SDS011;58753;49.440;11.126;2023-05-10T06:55:15;0.20;;;0.10;;
71095;SDS011;58753;49.440;11.126;2023-05-10T06:57:40;0.67;;;0.20;;
71095;SDS011;58753;49.440;11.126;2023-05-10T07:00:06;1.47;;;0.40;;
71095;SDS011;58753;49.440;11.126;2023-05-10T07:02:32;0.60;;;0.27;;
71095;SDS011;58753;49.440;11.126;2023-05-10T07:04:58;0.68;;;0.25;;
71095;SDS011;58753;49.440;11.126;2023-05-10T07:07:23;0.30;;;0.20;;
71095;SDS011;58753;49.440;11.126;2023-05-10T07:09:49;0.30;;;0.10;;
71095;SDS011;58753;49.440;11.126;2023-05-10T07:12:15;0.60;;;0.30;;
71095;SDS011;58753;49.440;11.126;2023-05-10T07:14:40;0.60;;;0.10;;
71095;SDS011;58753;49.440;11.126;2023-05-10T07:17:05;0.30;;;0.10;;
71095;SDS011;58753;49.440;11.126;2023-05-10T07:19:31;0.40;;;0.30;;
71095;SDS011;58753;49.440;11.126;2023-05-10T07:21:57;3.85;;;0.28;;
71095;SDS011;58753;49.440;11.126;2023-05-10T07:24:23;0.40;;;0.20;;
71095;SDS011;58753;49.440;11.126;2023-05-10T07:26:49;0.90;;;0.30;;
71095;SDS011;58753;49.440;11.126;2023-05-10T07:29:14;0.20;;;0.10;;
71095;SDS011;58753;49.440;11.126;2023-05-10T07:31:40;0.50;;;0.20;;
71095;SDS011;58753;49.440;11.126;2023-05-10T07:34:07;0.50;;;0.27;;
71095;SDS011;58753;49.440;11.126;2023-05-10T07:36:33;0.45;;;0.25;;
71095;SDS011;58753;49.440;11.126;2023-05-10T07:38:59;0.43;;;0.17;;
71095;SDS011;58753;49.440;11.126;2023-05-10T07:41:24;0.30;;;0.20;;
71095;SDS011;58753;49.440;11.126;2023-05-10T07:43:49;1.17;;;0.37;;
71095;SDS011;58753;49.440;11.126;2023-05-10T07:46:15;2.83;;;0.37;;
71095;SDS011;58753;49.440;11.126;2023-05-10T07:48:40;0.30;;;0.20;;
71095;SDS011;58753;49.440;11.126;2023-05-10T07:51:06;0.40;;;0.22;;
71095;SDS011;58753;49.440;11.126;2023-05-10T07:53:34;0.40;;;0.20;;
71095;SDS011;58753;49.440;11.126;2023-05-10T07:56:19;0.40;;;0.20;;
71095;SDS011;58753;49.440;11.126;2023-05-10T07:58:54;0.57;;;0.32;;
71095;SDS011;58753;49.440;11.126;2023-05-10T08:01:20;0.52;;;0.20;;
71095;SDS011;58753;49.440;11.126;2023-05-10T08:03:46;0.40;;;0.20;;
71095;SDS011;58753;49.440;11.126;2023-05-10T08:06:11;0.43;;;0.30;;
71095;SDS011;58753;49.440;11.126;2023-05-10T08:08:37;0.22;;;0.10;;
71095;SDS011;58753;49.440;11.126;2023-05-10T08:11:03;0.50;;;0.30;;
71095;SDS011;58753;49.440;11.126;2023-05-10T08:13:28;0.68;;;0.35;;
71095;SDS011;58753;49.440;11.126;2023-05-10T08:15:54;0.90;;;0.40;;
71095;SDS011;58753;49.440;11.126;2023-05-10T08:18:19;0.53;;;0.40;;
71095;SDS011;58753;49.440;11.126;2023-05-10T08:20:45;0.95;;;0.30;;
71095;SDS011;58753;49.440;11.126;2023-05-10T08:23:11;0.80;;;0.43;;
71095;SDS011;58753;49.440;11.126;2023-05-10T08:25:37;0.40;;;0.10;;
71095;SDS011;58753;49.440;11.126;2023-05-10T08:28:03;0.67;;;0.23;;
71095;SDS011;58753;49.440;11.126;2023-05-10T08:30:28;0.50;;;0.27;;
71095;SDS011;58753;49.440;11.126;2023-05-10T08:32:54;0.82;;;0.40;;
71095;SDS011;58753;49.440;11.126;2023-05-10T08:35:19;0.83;;;0.30;;
71095;SDS011;58753;49.440;11.126;2023-05-10T08:37:44;1.03;;;0.57;;
71095;SDS011;58753;49.440;11.126;2023-05-10T08:40:11;0.47;;;0.27;;
71095;SDS011;58753;49.440;11.126;2023-05-10T08:42:38;1.83;;;0.60;;
71095;SDS011;58753;49.440;11.126;2023-05-10T08:45:08;0.60;;;0.40;;
71095;SDS011;58753;49.440;11.126;2023-05-10T08:47:35;1.55;;;0.47;;
71095;SDS011;58753;49.440;11.126;2023-05-10T08:50:03;0.68;;;0.40;;
71095;SDS011;58753;49.440;11.126;2023-05-10T08:52:29;0.55;;;0.28;;
71095;SDS011;58753;49.440;11.126;2023-05-10T08:54:57;0.50;;;0.30;;
71095;SDS011;58753;49.440;11.126;2023-05-10T08:57:23;0.57;;;0.30;;
71095;SDS011;58753;49.440;11.126;2023-05-10T08:59:49;0.40;;;0.30;;
71095;SDS011;58753;49.440;11.126;2023-05-10T09:02:14;0.57;;;0.40;;
71095;SDS011;58753;49.440;11.126;2023-05-10T09:04:40;1.50;;;0.50;;
71095;SDS011;58753;49.440;11.126;2023-05-10T09:07:06;1.17;;;0.22;;
71095;SDS011;58753;49.440;11.126;2023-05-10T09:09:32;0.87;;;0.27;;
71095;SDS011;58753;49.440;11.126;2023-05-10T09:11:58;0.80;;;0.20;;
71095;SDS011;58753;49.440;11.126;2023-05-10T09:14:24;0.73;;;0.38;;
71095;SDS011;58753;49.440;11.126;2023-05-10T09:16:50;0.93;;;0.60;;
71095;SDS011;58753;49.440;11.126;2023-05-10T09:19:16;1.03;;;0.40;;
71095;SDS011;58753;49.440;11.126;2023-05-10T09:21:41;0.80;;;0.33;;
71095;SDS011;58753;49.440;11.126;2023-05-10T09:24:07;0.60;;;0.35;;
71095;SDS011;58753;49.440;11.126;2023-05-10T09:26:33;0.90;;;0.77;;
71095;SDS011;58753;49.440;11.126;2023-05-10T09:29:00;0.85;;;0.40;;
71095;SDS011;58753;49.440;11.126;2023-05-10T09:34:20;1.08;;;0.43;;
71095;SDS011;58753;49.440;11.126;2023-05-10T09:36:57;1.27;;;0.45;;
71095;SDS011;58753;49.440;11.126;2023-05-10T09:42:12;1.33;;;1.10;;
71095;SDS011;58753;49.440;11.126;2023-05-10T09:44:37;0.73;;;0.32;;
71095;SDS011;58753;49.440;11.126;2023-05-10T09:47:03;0.70;;;0.23;;
71095;SDS011;58753;49.440;11.126;2023-05-10T09:49:29;1.38;;;0.73;;
71095;SDS011;58753;49.440;11.126;2023-05-10T09:54:30;1.27;;;0.70;;
71095;SDS011;58753;49.440;11.126;2023-05-10T09:56:56;0.75;;;0.40;;
71095;SDS011;58753;49.440;11.126;2023-05-10T09:59:22;0.70;;;0.67;;
71095;SDS011;58753;49.440;11.126;2023-05-10T10:01:51;0.83;;;0.40;;
71095;SDS011;58753;49.440;11.126;2023-05-10T10:04:18;1.20;;;0.40;;
71095;SDS011;58753;49.440;11.126;2023-05-10T10:06:45;1.00;;;0.50;;
71095;SDS011;58753;49.440;11.126;2023-05-10T10:09:11;0.77;;;0.37;;
71095;SDS011;58753;49.440;11.126;2023-05-10T10:11:37;1.03;;;0.40;;
71095;SDS011;58753;49.440;11.126;2023-05-10T10:14:03;1.38;;;0.68;;
71095;SDS011;58753;49.440;11.126;2023-05-10T10:16:30;1.25;;;0.82;;
71095;SDS011;58753;49.440;11.126;2023-05-10T10:18:56;1.08;;;0.68;;
71095;SDS011;58753;49.440;11.126;2023-05-10T10:21:22;1.00;;;0.50;;
71095;SDS011;58753;49.440;11.126;2023-05-10T10:23:48;0.85;;;0.38;;
71095;SDS011;58753;49.440;11.126;2023-05-10T10:26:13;1.07;;;0.77;;
71095;SDS011;58753;49.440;11.126;2023-05-10T10:31:19;1.80;;;0.55;;
71095;SDS011;58753;49.440;11.126;2023-05-10T10:33:55;1.98;;;0.52;;
71095;SDS011;58753;49.440;11.126;2023-05-10T10:36:25;0.50;;;0.30;;
71095;SDS011;58753;49.440;11.126;2023-05-10T10:41:28;0.95;;;0.40;;
71095;SDS011;58753;49.440;11.126;2023-05-10T10:49:23;0.73;;;0.37;;
71095;SDS011;58753;49.440;11.126;2023-05-10T10:54:40;1.03;;;0.80;;
71095;SDS011;58753;49.440;11.126;2023-05-10T10:57:13;0.65;;;0.28;;
71095;SDS011;58753;49.440;11.126;2023-05-10T10:59:43;1.90;;;0.63;;
71095;SDS011;58753;49.440;11.126;2023-05-10T11:02:09;0.47;;;0.20;;
71095;SDS011;58753;49.440;11.126;2023-05-10T11:04:41;1.03;;;0.30;;
71095;SDS011;58753;49.440;11.126;2023-05-10T11:07:18;0.40;;;0.20;;
71095;SDS011;58753;49.440;11.126;2023-05-10T11:09:45;1.30;;;0.43;;
71095;SDS011;58753;49.440;11.126;2023-05-10T11:12:12;0.40;;;0.20;;
71095;SDS011;58753;49.440;11.126;2023-05-10T11:14:37;0.30;;;0.10;;
71095;SDS011;58753;49.440;11.126;2023-05-10T11:17:21;0.67;;;0.30;;
71095;SDS011;58753;49.440;11.126;2023-05-10T11:20:10;0.85;;;0.40;;
71095;SDS011;58753;49.440;11.126;2023-05-10T11:22:54;0.77;;;0.30;;
71095;SDS011;58753;49.440;11.126;2023-05-10T11:25:22;0.65;;;0.40;;
71095;SDS011;58753;49.440;11.126;2023-05-10T11:27:51;0.53;;;0.30;;
71095;SDS011;58753;49.440;11.126;2023-05-10T11:30:17;0.60;;;0.38;;
71095;SDS011;58753;49.440;11.126;2023-05-10T11:32:43;0.70;;;0.50;;
71095;SDS011;58753;49.440;11.126;2023-05-10T11:35:09;0.77;;;0.45;;
71095;SDS011;58753;49.440;11.126;2023-05-10T11:37:36;0.38;;;0.20;;
71095;SDS011;58753;49.440;11.126;2023-05-10T11:40:06;0.40;;;0.20;;
71095;SDS011;58753;49.440;11.126;2023-05-10T11:42:38;0.50;;;0.20;;
71095;SDS011;58753;49.440;11.126;2023-05-10T11:45:04;0.63;;;0.28;;
71095;SDS011;58753;49.440;11.126;2023-05-10T11:47:30;0.70;;;0.35;;
71095;SDS011;58753;49.440;11.126;2023-05-10T11:49:56;0.87;;;0.40;;
71095;SDS011;58753;49.440;11.126;2023-05-10T11:52:23;0.28;;;0.10;;
71095;SDS011;58753;49.440;11.126;2023-05-10T11:54:52;0.80;;;0.30;;
71095;SDS011;58753;49.440;11.126;2023-05-10T11:57:18;1.60;;;0.60;;
71095;SDS011;58753;49.440;11.126;2023-05-10T11:59:45;0.95;;;0.55;;
71095;SDS011;58753;49.440;11.126;2023-05-10T12:02:13;0.60;;;0.30;;
71095;SDS011;58753;49.440;11.126;2023-05-10T12:04:44;0.95;;;0.50;;
71095;SDS011;58753;49.440;11.126;2023-05-10T12:07:09;0.50;;;0.20;;
71095;SDS011;58753;49.440;11.126;2023-05-10T12:09:35;0.37;;;0.17;;
71095;SDS011;58753;49.440;11.126;2023-05-10T12:12:00;1.13;;;0.43;;
71095;SDS011;58753;49.440;11.126;2023-05-10T12:14:27;0.40;;;0.20;;
71095;SDS011;58753;49.440;11.126;2023-05-10T12:16:53;1.45;;;0.30;;
71095;SDS011;58753;49.440;11.126;2023-05-10T12:19:22;0.80;;;0.47;;
71095;SDS011;58753;49.440;11.126;2023-05-10T12:21:47;0.73;;;0.37;;
71095;SDS011;58753;49.440;11.126;2023-05-10T12:24:13;0.80;;;0.40;;
71095;SDS011;58753;49.440;11.126;2023-05-10T12:26:41;0.77;;;0.40;;
71095;SDS011;58753;49.440;11.126;2023-05-10T12:29:13;0.70;;;0.37;;
71095;SDS011;58753;49.440;11.126;2023-05-10T12:31:56;0.90;;;0.55;;
71095;SDS011;58753;49.440;11.126;2023-05-10T12:34:33;0.73;;;0.43;;
71095;SDS011;58753;49.440;11.126;2023-05-10T12:36:59;0.77;;;0.52;;
71095;SDS011;58753;49.440;11.126;2023-05-10T12:39:25;0.90;;;0.50;;
71095;SDS011;58753;49.440;11.126;2023-05-10T12:41:51;0.60;;;0.30;;
71095;SDS011;58753;49.440;11.126;2023-05-10T12:44:17;0.80;;;0.50;;
71095;SDS011;58753;49.440;11.126;2023-05-10T12:46:43;0.88;;;0.52;;
71095;SDS011;58753;49.440;11.126;2023-05-10T12:49:08;0.70;;;0.27;;
71095;SDS011;58753;49.440;11.126;2023-05-10T12:51:34;0.93;;;0.43;;
71095;SDS011;58753;49.440;11.126;2023-05-10T12:53:59;0.80;;;0.50;;
71095;SDS011;58753;49.440;11.126;2023-05-10T12:56:24;0.53;;;0.30;;
71095;SDS011;58753;49.440;11.126;2023-05-10T12:58:50;0.77;;;0.38;;
71095;SDS011;58753;49.440;11.126;2023-05-10T13:01:16;1.00;;;0.50;;
71095;SDS011;58753;49.440;11.126;2023-05-10T13:03:41;0.80;;;0.30;;
71095;SDS011;58753;49.440;11.126;2023-05-10T13:06:08;0.60;;;0.40;;
71095;SDS011;58753;49.440;11.126;2023-05-10T13:08:33;0.80;;;0.40;;
71095;SDS011;58753;49.440;11.126;2023-05-10T13:10:59;1.00;;;0.40;;
71095;SDS011;58753;49.440;11.126;2023-05-10T13:13:25;0.45;;;0.20;;
71095;SDS011;58753;49.440;11.126;2023-05-10T13:15:51;0.40;;;0.20;;
71095;SDS011;58753;49.440;11.126;2023-05-10T13:18:16;1.27;;;0.57;;
71095;SDS011;58753;49.440;11.126;2023-05-10T13:20:42;0.50;;;0.20;;
71095;SDS011;58753;49.440;11.126;2023-05-10T13:23:09;0.55;;;0.30;;
71095;SDS011;58753;49.440;11.126;2023-05-10T13:25:35;0.80;;;0.47;;
71095;SDS011;58753;49.440;11.126;2023-05-10T13:28:00;0.60;;;0.50;;
71095;SDS011;58753;49.440;11.126;2023-05-10T13:30:26;0.60;;;0.20;;
71095;SDS011;58753;49.440;11.126;2023-05-10T13:32:51;0.63;;;0.37;;
71095;SDS011;58753;49.440;11.126;2023-05-10T13:35:17;1.23;;;0.37;;
71095;SDS011;58753;49.440;11.126;2023-05-10T13:37:42;1.20;;;0.53;;
71095;SDS011;58753;49.440;11.126;2023-05-10T13:40:07;0.40;;;0.20;;
71095;SDS011;58753;49.440;11.126;2023-05-10T13:42:33;0.82;;;0.60;;
71095;SDS011;58753;49.440;11.126;2023-05-10T13:44:59;0.70;;;0.50;;
71095;SDS011;58753;49.440;11.126;2023-05-10T13:47:26;0.32;;;0.13;;
71095;SDS011;58753;49.440;11.126;2023-05-10T13:49:52;0.40;;;0.10;;
71095;SDS011;58753;49.440;11.126;2023-05-10T13:52:17;0.40;;;0.20;;
71095;SDS011;58753;49.440;11.126;2023-05-10T13:54:43;0.53;;;0.37;;
71095;SDS011;58753;49.440;11.126;2023-05-10T13:57:08;0.40;;;0.20;;
71095;SDS011;58753;49.440;11.126;2023-05-10T13:59:34;0.63;;;0.30;;
71095;SDS011;58753;49.440;11.126;2023-05-10T14:01:59;0.63;;;0.40;;
71095;SDS011;58753;49.440;11.126;2023-05-10T14:04:27;0.45;;;0.25;;
71095;SDS011;58753;49.440;11.126;2023-05-10T14:06:53;1.00;;;0.43;;
71095;SDS011;58753;49.440;11.126;2023-05-10T14:09:18;0.30;;;0.10;;
71095;SDS011;58753;49.440;11.126;2023-05-10T14:11:44;0.47;;;0.23;;
71095;SDS011;58753;49.440;11.126;2023-05-10T14:14:10;0.68;;;0.28;;
71095;SDS011;58753;49.440;11.126;2023-05-10T14:16:36;0.60;;;0.20;;
71095;SDS011;58753;49.440;11.126;2023-05-10T14:19:01;0.60;;;0.40;;
71095;SDS011;58753;49.440;11.126;2023-05-10T14:21:27;1.10;;;0.47;;
71095;SDS011;58753;49.440;11.126;2023-05-10T14:23:55;1.10;;;0.30;;
71095;SDS011;58753;49.440;11.126;2023-05-10T14:26:21;0.93;;;0.43;;
71095;SDS011;58753;49.440;11.126;2023-05-10T14:28:46;0.87;;;0.30;;
71095;SDS011;58753;49.440;11.126;2023-05-10T14:31:12;0.30;;;0.10;;
71095;SDS011;58753;49.440;11.126;2023-05-10T14:33:39;0.70;;;0.40;;
71095;SDS011;58753;49.440;11.126;2023-05-10T14:36:05;0.60;;;0.30;;
71095;SDS011;58753;49.440;11.126;2023-05-10T14:38:31;1.60;;;0.20;;
71095;SDS011;58753;49.440;11.126;2023-05-10T14:40:56;0.57;;;0.30;;
71095;SDS011;58753;49.440;11.126;2023-05-10T14:43:22;0.60;;;0.35;;
71095;SDS011;58753;49.440;11.126;2023-05-10T14:45:48;0.63;;;0.40;;
71095;SDS011;58753;49.440;11.126;2023-05-10T14:48:13;0.57;;;0.20;;
71095;SDS011;58753;49.440;11.126;2023-05-10T14:50:42;0.57;;;0.25;;
71095;SDS011;58753;49.440;11.126;2023-05-10T14:53:07;0.80;;;0.30;;
71095;SDS011;58753;49.440;11.126;2023-05-10T14:55:33;0.73;;;0.20;;
71095;SDS011;58753;49.440;11.126;2023-05-10T14:57:59;0.50;;;0.30;;
71095;SDS011;58753;49.440;11.126;2023-05-10T15:00:25;0.22;;;0.13;;
71095;SDS011;58753;49.440;11.126;2023-05-10T15:02:50;0.80;;;0.40;;
71095;SDS011;58753;49.440;11.126;2023-05-10T15:05:15;0.40;;;0.20;;
71095;SDS011;58753;49.440;11.126;2023-05-10T15:07:41;0.67;;;0.37;;
71095;SDS011;58753;49.440;11.126;2023-05-10T15:10:08;0.40;;;0.28;;